Time;durP1;ratioP1;P1;durP2;ratioP2;P2;SDS_P1;SDS_P2;PMS_P1;PMS_P2;Temp;Humidity;BMP_temperature;BMP_pressure;BME280_temperature;BME280_humidity;BME280_pressure;Samples;Min_cycle;Max_cycle;Signal;HPM_P1;HPM_P2
2021/06/08 00:01:34;;;;;;;10.90;9.30;;;19.90;99.90;;;;;;5096980;28;20205;-68
2021/06/08 00:04:00;;;;;;;9.60;8.70;;;19.80;99.90;;;;;;5096788;28;20179;-68
2021/06/08 00:06:25;;;;;;;10.70;9.60;;;19.80;99.90;;;;;;5096850;28;20921;-68
2021/06/08 00:08:51;;;;;;;12.07;8.90;;;19.80;99.90;;;;;;5096750;28;20581;-68
2021/06/08 00:11:20;;;;;;;9.60;8.70;;;19.70;99.90;;;;;;5096491;28;20214;-68
2021/06/08 00:13:45;;;;;;;11.13;10.03;;;19.50;99.90;;;;;;5096656;28;20667;-68
2021/06/08 00:16:11;;;;;;;10.57;9.10;;;19.40;99.90;;;;;;5095279;28;20474;-68
2021/06/08 00:18:37;;;;;;;10.37;9.20;;;19.30;99.90;;;;;;5096534;28;20681;-68
2021/06/08 00:21:02;;;;;;;10.90;9.80;;;19.30;99.90;;;;;;5096223;28;20231;-68
2021/06/08 00:23:28;;;;;;;11.13;9.57;;;19.50;99.90;;;;;;5096527;28;20260;-68
2021/06/08 00:26:12;;;;;;;10.17;9.27;;;19.50;99.90;;;;;;5095004;28;20260;-68
2021/06/08 00:28:38;;;;;;;10.33;9.43;;;19.30;99.90;;;;;;5095151;28;20551;-68
2021/06/08 00:31:03;;;;;;;10.67;9.43;;;19.30;99.90;;;;;;5094891;28;20449;-70
2021/06/08 00:33:32;;;;;;;10.47;9.50;;;19.30;99.90;;;;;;5096289;28;20241;-68
2021/06/08 00:35:58;;;;;;;11.07;9.40;;;19.30;99.90;;;;;;5094837;28;20187;-68
2021/06/08 00:38:24;;;;;;;14.10;10.33;;;19.30;99.90;;;;;;5096196;28;20442;-69
2021/06/08 00:40:49;;;;;;;19.00;10.10;;;19.10;99.90;;;;;;5094561;28;20310;-68
2021/06/08 00:43:15;;;;;;;10.70;9.60;;;19.10;99.90;;;;;;5094777;28;20183;-69
2021/06/08 00:45:40;;;;;;;10.60;9.23;;;19.00;99.90;;;;;;5095935;28;20278;-68
2021/06/08 00:48:06;;;;;;;10.87;9.90;;;19.00;99.90;;;;;;5096406;28;20225;-68
2021/06/08 00:50:33;;;;;;;11.37;10.20;;;19.00;99.90;;;;;;5094592;28;20199;-69
2021/06/08 00:52:59;;;;;;;10.80;9.70;;;19.00;99.90;;;;;;5096377;28;20502;-68
2021/06/08 00:55:25;;;;;;;10.70;8.90;;;19.00;99.90;;;;;;5095835;28;20516;-68
2021/06/08 00:57:51;;;;;;;11.03;9.70;;;19.10;99.90;;;;;;5096306;28;20186;-68
2021/06/08 01:00:17;;;;;;;10.67;9.70;;;19.10;99.90;;;;;;5095745;28;20474;-68
2021/06/08 01:02:43;;;;;;;10.37;9.37;;;19.20;99.90;;;;;;5096250;28;20179;-68
2021/06/08 01:05:09;;;;;;;13.27;10.40;;;19.10;99.90;;;;;;5095570;28;20407;-68
2021/06/08 01:07:36;;;;;;;10.37;9.30;;;19.10;99.90;;;;;;5096031;28;20187;-68
2021/06/08 01:10:08;;;;;;;10.17;9.27;;;19.20;99.90;;;;;;5095461;28;20404;-68
2021/06/08 01:12:34;;;;;;;11.03;9.20;;;19.20;99.90;;;;;;5094453;28;20426;-67
2021/06/08 01:15:00;;;;;;;11.13;9.97;;;19.10;99.90;;;;;;5095378;28;20483;-68
2021/06/08 01:17:25;;;;;;;11.30;10.30;;;19.00;99.90;;;;;;5095534;28;20234;-68
2021/06/08 01:19:55;;;;;;;11.03;9.90;;;19.00;99.90;;;;;;5095215;28;20228;-68
2021/06/08 01:22:21;;;;;;;10.73;9.63;;;19.00;99.90;;;;;;5093476;28;20191;-68
2021/06/08 01:24:47;;;;;;;11.77;10.60;;;19.00;99.90;;;;;;5095252;28;20467;-69
2021/06/08 01:27:12;;;;;;;11.80;10.57;;;19.10;99.90;;;;;;5095460;28;20435;-68
2021/06/08 01:29:39;;;;;;;10.23;9.00;;;19.20;99.90;;;;;;5095188;28;20432;-69
2021/06/08 01:32:06;;;;;;;12.50;11.00;;;19.20;99.90;;;;;;5094961;28;20195;-68
2021/06/08 01:34:34;;;;;;;11.47;10.17;;;19.10;99.90;;;;;;5095072;28;20404;-68
2021/06/08 01:37:00;;;;;;;11.67;10.63;;;19.10;99.90;;;;;;5095150;28;20446;-68
2021/06/08 01:39:26;;;;;;;10.57;9.57;;;19.10;99.90;;;;;;5094950;28;20444;-68
2021/06/08 01:41:52;;;;;;;10.93;9.83;;;19.20;99.90;;;;;;5093654;28;20546;-69
2021/06/08 01:44:18;;;;;;;10.90;9.83;;;19.10;99.90;;;;;;5094972;28;20491;-68
2021/06/08 01:46:44;;;;;;;11.33;10.27;;;19.00;99.90;;;;;;5094673;28;20528;-69
2021/06/08 01:49:10;;;;;;;11.63;10.53;;;19.00;99.90;;;;;;5094800;28;20402;-69
2021/06/08 01:51:56;;;;;;;13.40;10.50;;;18.90;99.90;;;;;;5093497;28;20451;-68
2021/06/08 01:54:32;;;;;;;11.93;10.80;;;18.90;99.90;;;;;;5094780;28;20171;-69
2021/06/08 01:57:12;;;;;;;13.90;11.00;;;18.90;99.90;;;;;;5093480;28;20447;-67
2021/06/08 01:59:57;;;;;;;12.80;9.70;;;18.80;99.90;;;;;;5094686;28;20458;-68
2021/06/08 02:02:51;;;;;;;12.00;11.00;;;18.70;99.90;;;;;;5095068;28;20825;-68
2021/06/08 02:05:27;;;;;;;13.30;11.97;;;18.70;99.90;;;;;;5093182;28;20443;-68
2021/06/08 02:08:19;;;;;;;10.97;10.07;;;18.60;99.90;;;;;;5095006;28;20461;-68
2021/06/08 02:10:47;;;;;;;11.50;10.23;;;18.60;99.90;;;;;;5094177;28;20431;-69
2021/06/08 02:13:46;;;;;;;10.87;9.70;;;18.60;99.90;;;;;;5093154;28;20959;-68
2021/06/08 02:16:19;;;;;;;11.20;10.03;;;18.60;99.90;;;;;;5094325;28;20828;-68
2021/06/08 02:18:45;;;;;;;11.77;10.57;;;18.60;99.90;;;;;;5094136;28;20455;-68
2021/06/08 02:21:13;;;;;;;11.43;10.43;;;18.60;99.90;;;;;;5094294;28;20481;-68
2021/06/08 02:23:42;;;;;;;11.40;10.40;;;18.70;99.90;;;;;;5092924;28;20410;-68
2021/06/08 02:26:08;;;;;;;10.17;9.13;;;18.60;99.90;;;;;;5094102;28;20481;-68
2021/06/08 02:28:37;;;;;;;13.50;10.10;;;18.60;99.90;;;;;;5092852;28;20933;-68
2021/06/08 02:31:06;;;;;;;11.93;10.80;;;18.60;99.90;;;;;;5092757;28;20972;-67
2021/06/08 02:33:33;;;;;;;11.37;10.37;;;18.50;99.90;;;;;;5093399;28;20420;-68
2021/06/08 02:36:00;;;;;;;11.67;10.47;;;18.40;99.90;;;;;;5093810;28;20834;-68
2021/06/08 02:38:27;;;;;;;11.00;9.83;;;18.50;99.90;;;;;;5093993;28;20403;-67
2021/06/08 02:40:53;;;;;;;11.47;10.37;;;18.50;99.90;;;;;;5093749;28;20470;-68
2021/06/08 02:43:22;;;;;;;13.67;11.37;;;18.30;99.90;;;;;;5093950;28;20409;-68
2021/06/08 02:45:50;;;;;;;14.70;9.50;;;18.30;99.90;;;;;;5093691;28;20439;-69
2021/06/08 02:48:17;;;;;;;12.83;11.63;;;18.20;99.90;;;;;;5093970;28;20447;-69
2021/06/08 02:50:47;;;;;;;12.37;11.07;;;18.20;99.90;;;;;;5093797;28;20436;-68
2021/06/08 02:53:15;;;;;;;11.87;10.27;;;18.20;99.90;;;;;;5093785;28;20420;-68
2021/06/08 02:55:41;;;;;;;13.83;11.33;;;18.10;99.90;;;;;;5093696;28;20429;-68
2021/06/08 02:58:08;;;;;;;11.13;10.10;;;18.10;99.90;;;;;;5094236;28;20911;-68
2021/06/08 03:00:33;;;;;;;11.43;10.33;;;18.20;99.90;;;;;;5093614;28;20850;-68
2021/06/08 03:03:01;;;;;;;12.20;11.00;;;18.40;99.90;;;;;;5094319;28;20414;-68
2021/06/08 03:05:41;;;;;;;12.40;11.20;;;18.30;99.90;;;;;;5093650;28;20687;-68
2021/06/08 03:08:20;;;;;;;11.73;10.50;;;18.40;99.90;;;;;;5091944;28;20429;-68
2021/06/08 03:10:50;;;;;;;11.87;10.80;;;18.30;99.90;;;;;;5093529;28;20427;-69
2021/06/08 03:13:18;;;;;;;12.33;11.00;;;18.40;99.90;;;;;;5092387;28;20507;-68
2021/06/08 03:15:48;;;;;;;12.30;10.27;;;18.30;99.90;;;;;;5093449;28;20795;-69
2021/06/08 03:18:17;;;;;;;14.93;11.27;;;18.40;99.90;;;;;;5093596;28;20449;-69
2021/06/08 03:20:57;;;;;;;13.37;11.27;;;18.30;99.90;;;;;;5093406;28;20551;-68
2021/06/08 03:23:26;;;;;;;11.63;10.60;;;18.30;99.90;;;;;;5092303;28;20435;-68
2021/06/08 03:25:54;;;;;;;11.70;10.50;;;18.30;99.90;;;;;;5093368;28;20436;-68
2021/06/08 03:28:22;;;;;;;12.50;11.20;;;18.30;99.90;;;;;;5093563;28;20489;-68
2021/06/08 03:30:49;;;;;;;11.63;10.40;;;18.40;99.90;;;;;;5093265;28;20434;-69
2021/06/08 03:33:16;;;;;;;10.80;9.83;;;18.40;99.90;;;;;;5093451;28;20394;-69
2021/06/08 03:35:42;;;;;;;12.90;11.20;;;18.50;99.90;;;;;;5092095;28;20492;-68
2021/06/08 03:38:09;;;;;;;12.30;11.00;;;18.50;99.90;;;;;;5093925;28;20446;-69
2021/06/08 03:40:36;;;;;;;10.73;9.70;;;18.60;99.90;;;;;;5093284;28;20469;-68
2021/06/08 03:43:02;;;;;;;12.40;11.10;;;18.60;99.90;;;;;;5093933;28;20935;-68
2021/06/08 03:45:28;;;;;;;13.30;11.53;;;18.60;99.90;;;;;;5093122;28;20505;-69
2021/06/08 03:47:55;;;;;;;11.50;10.40;;;18.70;99.90;;;;;;5097114;28;20441;-68
2021/06/08 03:50:21;;;;;;;12.43;9.97;;;18.70;99.90;;;;;;5097131;28;20274;-68
2021/06/08 03:52:50;;;;;;;11.40;10.40;;;18.80;99.90;;;;;;5097522;28;20453;-68
2021/06/08 03:55:19;;;;;;;16.30;11.40;;;18.80;99.90;;;;;;5096871;28;20434;-68
2021/06/08 03:57:47;;;;;;;12.17;10.90;;;18.90;99.90;;;;;;5097364;28;20456;-69
2021/06/08 04:00:17;;;;;;;14.30;12.40;;;18.90;99.90;;;;;;5096785;28;20461;-68
2021/06/08 04:02:43;;;;;;;12.50;11.20;;;19.00;99.90;;;;;;5097283;28;20998;-68
2021/06/08 04:05:10;;;;;;;12.53;11.33;;;19.00;99.90;;;;;;5096770;28;20433;-68
2021/06/08 04:07:39;;;;;;;12.67;11.47;;;19.00;99.90;;;;;;5097163;28;20517;-68
2021/06/08 04:10:06;;;;;;;11.47;10.13;;;19.10;99.90;;;;;;5096600;28;20912;-68
2021/06/08 04:12:32;;;;;;;12.33;11.03;;;19.10;99.90;;;;;;5097002;28;20410;-68
2021/06/08 04:14:58;;;;;;;15.70;11.60;;;19.20;99.90;;;;;;5096615;28;20896;-68
2021/06/08 04:17:24;;;;;;;13.87;10.70;;;19.30;99.90;;;;;;5096679;28;20782;-68
2021/06/08 04:19:50;;;;;;;16.57;11.50;;;19.40;99.90;;;;;;5096394;28;20546;-68
2021/06/08 04:22:32;;;;;;;13.77;10.77;;;19.50;99.90;;;;;;5096866;28;20568;-68
2021/06/08 04:24:58;;;;;;;14.63;11.70;;;19.50;99.90;;;;;;5096325;28;20412;-68
2021/06/08 04:27:30;;;;;;;13.23;11.00;;;19.50;99.90;;;;;;5095186;28;20857;-68
2021/06/08 04:29:56;;;;;;;12.43;10.47;;;19.60;99.90;;;;;;5096236;28;20416;-68
2021/06/08 04:32:24;;;;;;;11.77;10.43;;;19.60;99.90;;;;;;5095140;28;20937;-68
2021/06/08 04:34:54;;;;;;;12.80;11.60;;;19.60;99.90;;;;;;5096181;28;20398;-69
2021/06/08 04:37:20;;;;;;;14.77;12.07;;;19.60;99.90;;;;;;5096591;28;20431;-69
2021/06/08 04:39:47;;;;;;;12.30;10.83;;;19.70;99.90;;;;;;5096025;28;20894;-69
2021/06/08 04:42:15;;;;;;;17.57;10.57;;;19.70;99.90;;;;;;5096348;28;20446;-68
2021/06/08 04:44:46;;;;;;;13.33;11.07;;;19.70;99.90;;;;;;5096066;28;20422;-68
2021/06/08 04:47:14;;;;;;;12.70;11.40;;;19.80;99.90;;;;;;5096411;28;21015;-69
2021/06/08 04:49:40;;;;;;;13.30;11.00;;;19.80;99.90;;;;;;5095111;28;20839;-69
2021/06/08 04:52:07;;;;;;;12.57;11.30;;;19.90;99.90;;;;;;5093915;28;20546;-68
2021/06/08 04:54:33;;;;;;;12.50;11.20;;;19.90;99.90;;;;;;5094101;28;20222;-69
2021/06/08 04:57:00;;;;;;;11.43;10.37;;;19.80;99.90;;;;;;5108450;28;20450;-68
2021/06/08 04:59:44;;;;;;;13.07;11.73;;;19.90;99.90;;;;;;5114620;28;20415;-69
2021/06/08 05:02:17;;;;;;;11.87;10.77;;;19.90;99.90;;;;;;5116341;28;20547;-68
2021/06/08 05:04:43;;;;;;;14.50;11.97;;;20.00;99.90;;;;;;5116085;28;20427;-68
2021/06/08 05:07:12;;;;;;;12.87;11.50;;;20.00;99.90;;;;;;5116185;28;20447;-69
2021/06/08 05:09:46;;;;;;;14.30;10.50;;;20.20;99.90;;;;;;5115955;28;20498;-68
2021/06/08 05:12:14;;;;;;;11.97;10.90;;;20.30;99.90;;;;;;5116225;28;20478;-69
2021/06/08 05:14:48;;;;;;;11.60;10.50;;;20.50;99.90;;;;;;5115822;28;20463;-68
2021/06/08 05:17:17;;;;;;;10.53;9.63;;;20.60;99.90;;;;;;5115638;28;20527;-68
2021/06/08 05:19:43;;;;;;;13.83;11.67;;;20.70;99.90;;;;;;5114362;28;20485;-69
2021/06/08 05:22:11;;;;;;;11.90;10.17;;;20.80;99.90;;;;;;5115949;28;20885;-69
2021/06/08 05:24:37;;;;;;;12.87;10.90;;;20.90;99.90;;;;;;5113882;28;20414;-68
2021/06/08 05:27:03;;;;;;;12.67;10.13;;;21.00;99.90;;;;;;5115465;28;20451;-68
2021/06/08 05:29:28;;;;;;;10.97;9.93;;;21.20;99.90;;;;;;5115418;28;20176;-68
2021/06/08 05:31:58;;;;;;;13.80;9.77;;;21.20;99.90;;;;;;5115395;28;20450;-68
2021/06/08 05:34:25;;;;;;;12.37;9.43;;;21.30;99.90;;;;;;5114757;28;20176;-69
2021/06/08 05:36:51;;;;;;;14.10;9.00;;;21.50;99.90;;;;;;5115327;28;20444;-69
2021/06/08 05:39:16;;;;;;;10.60;9.13;;;21.70;99.90;;;;;;5115479;28;20411;-69
2021/06/08 05:41:42;;;;;;;12.00;8.80;;;21.80;99.90;;;;;;5102966;27;20227;-68
2021/06/08 05:44:11;;;;;;;9.30;8.40;;;21.90;99.90;;;;;;5113059;28;20698;-69
2021/06/08 05:46:37;;;;;;;8.73;8.03;;;22.10;99.90;;;;;;5111961;28;20555;-69
2021/06/08 05:49:08;;;;;;;11.23;8.80;;;22.20;99.90;;;;;;5111664;28;20412;-69
2021/06/08 05:51:35;;;;;;;8.40;7.70;;;22.20;99.90;;;;;;5111420;28;20516;-69
2021/06/08 05:54:04;;;;;;;9.47;8.57;;;22.50;99.90;;;;;;5111853;28;20420;-68
2021/06/08 05:56:35;;;;;;;9.40;8.50;;;22.50;99.90;;;;;;5111567;28;20500;-69
2021/06/08 05:59:03;;;;;;;9.43;8.53;;;22.40;99.90;;;;;;5112326;28;20792;-68
2021/06/08 06:01:29;;;;;;;9.10;8.23;;;22.50;99.90;;;;;;5114800;28;20480;-69
2021/06/08 06:03:56;;;;;;;10.07;7.70;;;22.50;99.90;;;;;;5114672;28;20746;-69
2021/06/08 06:06:25;;;;;;;9.47;8.10;;;22.60;99.90;;;;;;5114960;28;20458;-69
2021/06/08 06:08:50;;;;;;;9.60;8.70;;;23.00;99.90;;;;;;5108943;28;20499;-69
2021/06/08 06:11:18;;;;;;;9.63;8.83;;;23.20;99.90;;;;;;5107142;28;20613;-68
2021/06/08 06:13:48;;;;;;;8.60;7.73;;;23.60;99.90;;;;;;5110163;28;20180;-69
2021/06/08 06:16:17;;;;;;;8.73;7.73;;;23.70;99.90;;;;;;5111649;28;20932;-69
2021/06/08 06:18:43;;;;;;;8.97;8.07;;;23.80;99.90;;;;;;5112030;28;20451;-68
2021/06/08 06:21:10;;;;;;;9.10;8.40;;;24.20;99.90;;;;;;5114356;28;20476;-68
2021/06/08 06:23:36;;;;;;;9.20;8.27;;;24.10;99.90;;;;;;5111294;28;20421;-69
2021/06/08 06:26:03;;;;;;;9.43;8.50;;;24.10;99.90;;;;;;5112094;28;20448;-68
2021/06/08 06:28:29;;;;;;;9.10;8.27;;;24.20;99.90;;;;;;5100611;28;20292;-69
2021/06/08 06:30:56;;;;;;;8.80;7.70;;;24.40;99.90;;;;;;5111993;28;20923;-68
2021/06/08 06:33:23;;;;;;;8.77;7.77;;;24.70;99.90;;;;;;5113630;28;20417;-69
2021/06/08 06:35:49;;;;;;;8.03;7.30;;;24.80;99.90;;;;;;5106784;28;20452;-69
2021/06/08 06:38:17;;;;;;;7.93;7.23;;;24.70;99.90;;;;;;5096574;28;20525;-69
2021/06/08 06:40:44;;;;;;;8.27;7.47;;;24.60;99.90;;;;;;5106969;28;20945;-69
2021/06/08 06:43:15;;;;;;;8.07;7.17;;;24.80;99.90;;;;;;5111065;28;20416;-69
2021/06/08 06:45:42;;;;;;;8.53;6.70;;;24.70;99.90;;;;;;5110400;28;20810;-68
2021/06/08 06:48:12;;;;;;;8.80;7.30;;;24.90;99.90;;;;;;5108679;28;20439;-68
2021/06/08 06:50:40;;;;;;;7.80;7.00;;;25.20;99.90;;;;;;5108251;28;21030;-68
2021/06/08 06:53:06;;;;;;;7.20;6.63;;;25.10;99.90;;;;;;5107661;28;20519;-69
2021/06/08 06:55:33;;;;;;;8.50;7.70;;;25.20;99.90;;;;;;5102953;28;20456;-68
2021/06/08 06:58:00;;;;;;;8.07;7.37;;;25.10;99.90;;;;;;5109324;28;20439;-68
2021/06/08 07:00:27;;;;;;;7.67;6.97;;;25.20;99.90;;;;;;5112109;28;20475;-68
2021/06/08 07:02:55;;;;;;;7.93;7.33;;;25.40;99.90;;;;;;5108933;28;20506;-69
2021/06/08 07:05:39;;;;;;;7.90;7.10;;;25.30;99.90;;;;;;5108861;28;20442;-69
2021/06/08 07:08:06;;;;;;;7.87;7.27;;;25.30;99.90;;;;;;5111025;28;20440;-69
2021/06/08 07:10:33;;;;;;;8.10;7.23;;;25.30;99.90;;;;;;5112264;28;20449;-69
2021/06/08 07:13:04;;;;;;;7.90;7.20;;;25.50;99.90;;;;;;5107538;28;20438;-69
2021/06/08 07:15:30;;;;;;;8.33;7.47;;;25.60;99.90;;;;;;5108850;28;20469;-70
2021/06/08 07:17:56;;;;;;;7.90;7.10;;;25.60;99.90;;;;;;5102633;28;20483;-69
2021/06/08 07:20:27;;;;;;;7.80;7.10;;;25.60;99.90;;;;;;5099315;28;20518;-69
2021/06/08 07:22:54;;;;;;;7.93;7.23;;;25.60;99.90;;;;;;5110302;28;20437;-68
2021/06/08 07:25:20;;;;;;;8.40;7.60;;;25.70;99.90;;;;;;5115259;28;20417;-69
2021/06/08 07:27:47;;;;;;;10.00;6.63;;;25.90;99.90;;;;;;5112016;28;20949;-69
2021/06/08 07:30:15;;;;;;;9.50;6.67;;;26.20;99.90;;;;;;5109294;28;20529;-69
2021/06/08 07:32:41;;;;;;;9.03;6.70;;;26.00;99.90;;;;;;5109564;28;20426;-68
2021/06/08 07:36:04;;;;;;;8.33;7.50;;;25.70;99.90;;;;;;5110075;28;21014;-68
2021/06/08 07:39:00;;;;;;;7.83;7.13;;;26.20;99.90;;;;;;5031333;28;20205;-69
2021/06/08 07:41:56;;;;;;;8.90;8.00;;;26.10;99.90;;;;;;5131711;27;20478;-69
2021/06/08 07:44:31;;;;;;;9.37;6.93;;;26.10;99.90;;;;;;5112115;27;20433;-69
2021/06/08 07:47:01;;;;;;;8.07;7.27;;;26.40;99.90;;;;;;5113844;27;20454;-68
2021/06/08 07:49:29;;;;;;;7.90;7.20;;;26.20;99.90;;;;;;5108126;27;20822;-69
2021/06/08 07:51:55;;;;;;;7.67;7.03;;;26.50;99.90;;;;;;5127119;27;20855;-69
2021/06/08 07:54:24;;;;;;;7.23;6.63;;;26.50;99.90;;;;;;5114084;27;20517;-69
2021/06/08 07:56:52;;;;;;;9.63;7.40;;;26.50;99.90;;;;;;5113498;27;20458;-68
2021/06/08 07:59:19;;;;;;;7.40;6.70;;;26.40;99.90;;;;;;5117743;27;20614;-69
2021/06/08 08:01:45;;;;;;;8.27;7.27;;;26.60;99.90;;;;;;5116338;27;20604;-69
2021/06/08 08:04:18;;;;;;;8.33;7.60;;;26.60;99.90;;;;;;5108638;28;20498;-69
2021/06/08 08:06:44;;;;;;;9.30;7.50;;;26.60;99.90;;;;;;5124036;27;20335;-68
2021/06/08 08:09:10;;;;;;;8.03;7.30;;;26.50;99.90;;;;;;5116701;27;20438;-69
2021/06/08 08:11:41;;;;;;;11.63;7.30;;;26.60;99.90;;;;;;5114586;27;20454;-69
2021/06/08 08:14:07;;;;;;;8.83;7.07;;;26.70;99.90;;;;;;5113873;28;20878;-69
2021/06/08 08:16:33;;;;;;;9.10;7.10;;;26.60;99.90;;;;;;5123335;27;20463;-68
2021/06/08 08:18:59;;;;;;;9.27;7.40;;;26.70;99.90;;;;;;5110859;28;20488;-68
2021/06/08 08:21:25;;;;;;;8.10;7.30;;;26.90;99.90;;;;;;5123899;27;20335;-69
2021/06/08 08:23:51;;;;;;;6.73;6.23;;;27.00;99.90;;;;;;5117079;27;20429;-69
2021/06/08 08:26:16;;;;;;;7.63;6.43;;;27.10;99.90;;;;;;5127821;27;20466;-68
2021/06/08 08:28:44;;;;;;;7.17;6.47;;;27.10;99.90;;;;;;5133559;27;20182;-70
2021/06/08 08:31:15;;;;;;;7.37;6.67;;;27.10;99.90;;;;;;5133879;27;20549;-68
2021/06/08 08:33:43;;;;;;;6.90;6.20;;;27.10;99.90;;;;;;5104003;28;20430;-69
2021/06/08 08:36:10;;;;;;;7.53;6.30;;;27.10;99.90;;;;;;5117791;27;20461;-69
2021/06/08 08:38:36;;;;;;;7.13;6.53;;;27.10;99.90;;;;;;5126920;27;20777;-69
2021/06/08 08:41:04;;;;;;;10.30;6.80;;;27.20;99.90;;;;;;5135090;27;20466;-69
2021/06/08 08:43:30;;;;;;;6.87;6.27;;;27.20;99.90;;;;;;5135733;27;20402;-69
2021/06/08 08:45:56;;;;;;;8.43;6.37;;;27.40;99.90;;;;;;5133920;27;20467;-68
2021/06/08 08:48:22;;;;;;;7.50;6.90;;;27.30;99.90;;;;;;5119048;27;20506;-70
2021/06/08 08:50:49;;;;;;;9.60;6.97;;;27.40;99.90;;;;;;5135502;27;20431;-68
2021/06/08 08:53:18;;;;;;;7.13;6.60;;;27.40;99.90;;;;;;5135654;27;20421;-68
2021/06/08 08:55:45;;;;;;;6.70;5.90;;;27.50;99.90;;;;;;5135280;27;20435;-69
2021/06/08 08:58:12;;;;;;;9.67;6.60;;;27.50;99.90;;;;;;5107007;28;20455;-69
2021/06/08 09:00:38;;;;;;;6.50;5.93;;;27.70;99.90;;;;;;5110667;28;20475;-69
2021/06/08 09:03:06;;;;;;;6.50;5.90;;;27.60;99.90;;;;;;5130560;27;20450;-68
2021/06/08 09:05:37;;;;;;;6.77;6.10;;;27.70;99.90;;;;;;5124145;27;20439;-69
2021/06/08 09:08:04;;;;;;;8.33;5.43;;;27.80;99.90;;;;;;5121948;27;20466;-68
2021/06/08 09:10:31;;;;;;;5.50;5.00;;;28.00;99.90;;;;;;5135869;27;20997;-70
2021/06/08 09:12:57;;;;;;;5.73;5.33;;;28.20;99.90;;;;;;5128641;27;20499;-68
2021/06/08 09:15:23;;;;;;;6.07;5.57;;;28.20;99.90;;;;;;5119385;27;20439;-69
2021/06/08 09:17:52;;;;;;;6.07;5.57;;;28.30;99.80;;;;;;5107194;28;20310;-69
2021/06/08 09:20:18;;;;;;;5.40;4.90;;;28.50;99.30;;;;;;5101701;28;20251;-68
2021/06/08 09:22:56;;;;;;;5.83;5.33;;;28.60;99.60;;;;;;5110721;27;20463;-68
2021/06/08 09:25:45;;;;;;;5.13;4.73;;;28.60;98.10;;;;;;5113514;27;20546;-69
2021/06/08 09:28:10;;;;;;;6.07;5.47;;;28.60;97.80;;;;;;5117406;27;20931;-68
2021/06/08 09:30:36;;;;;;;5.50;5.00;;;28.30;97.40;;;;;;5127446;27;20446;-69
2021/06/08 09:33:33;;;;;;;6.07;5.57;;;28.50;97.80;;;;;;5127557;27;20187;-69
2021/06/08 09:36:18;;;;;;;6.93;5.33;;;28.50;97.30;;;;;;5128198;27;20307;-68
2021/06/08 09:39:01;;;;;;;5.30;4.90;;;28.60;96.00;;;;;;5138404;27;20788;-69
2021/06/08 09:41:30;;;;;;;6.10;5.43;;;28.60;96.60;;;;;;5133370;27;20483;-68
2021/06/08 09:43:58;;;;;;;5.70;5.10;;;28.80;96.40;;;;;;5134247;27;20423;-69
2021/06/08 09:46:42;;;;;;;5.93;4.80;;;28.70;93.60;;;;;;5125749;27;20460;-68
2021/06/08 09:49:07;;;;;;;5.07;4.67;;;28.90;95.00;;;;;;5110926;27;20455;-69
2021/06/08 09:51:49;;;;;;;7.73;4.70;;;28.90;95.10;;;;;;5115429;27;20546;-68
2021/06/08 09:54:30;;;;;;;7.80;5.10;;;29.00;95.00;;;;;;5124583;27;20235;-69
2021/06/08 09:57:18;;;;;;;5.43;4.93;;;29.10;94.30;;;;;;5105836;28;21041;-69
2021/06/08 10:00:06;;;;;;;5.87;5.40;;;29.00;94.20;;;;;;5109358;27;20436;-69
2021/06/08 10:02:47;;;;;;;6.80;5.57;;;29.00;93.60;;;;;;5116667;27;20500;-69
2021/06/08 10:05:19;;;;;;;5.30;4.57;;;29.00;94.40;;;;;;5129975;27;20454;-69
2021/06/08 10:07:45;;;;;;;5.43;4.93;;;29.00;93.80;;;;;;5127052;27;20431;-69
2021/06/08 10:10:13;;;;;;;5.33;4.83;;;29.20;93.80;;;;;;5133053;27;20421;-70
2021/06/08 10:13:00;;;;;;;5.43;4.93;;;29.20;93.50;;;;;;5132790;27;20430;-68
2021/06/08 10:15:34;;;;;;;5.00;4.57;;;29.20;93.40;;;;;;5133529;27;20443;-69
2021/06/08 10:18:02;;;;;;;4.80;4.40;;;29.40;93.40;;;;;;5125224;27;20898;-69
2021/06/08 10:20:31;;;;;;;5.40;4.83;;;29.50;93.20;;;;;;5113856;27;20485;-69
2021/06/08 10:23:15;;;;;;;5.47;4.67;;;29.50;93.00;;;;;;5116218;27;20416;-69
2021/06/08 10:25:41;;;;;;;5.77;5.00;;;29.50;92.50;;;;;;5118585;27;20807;-69
2021/06/08 10:28:10;;;;;;;5.43;5.03;;;29.50;92.50;;;;;;5123417;27;20470;-69
2021/06/08 10:30:37;;;;;;;4.80;4.40;;;29.60;91.60;;;;;;5114795;27;20197;-69
2021/06/08 10:33:04;;;;;;;4.70;4.30;;;29.40;92.10;;;;;;5122016;27;20475;-69
2021/06/08 10:35:29;;;;;;;7.40;4.60;;;29.60;92.00;;;;;;5113526;28;20842;-70
2021/06/08 10:37:56;;;;;;;5.60;5.10;;;29.70;92.10;;;;;;5111209;28;20433;-69
2021/06/08 10:40:21;;;;;;;5.47;5.07;;;29.70;91.80;;;;;;5111221;28;20592;-69
2021/06/08 10:42:47;;;;;;;6.17;5.03;;;29.70;91.70;;;;;;5111289;28;20568;-69
2021/06/08 10:45:13;;;;;;;5.60;5.00;;;29.60;92.00;;;;;;5110252;28;20199;-69
2021/06/08 10:47:51;;;;;;;4.93;4.53;;;29.60;90.90;;;;;;5106207;28;20665;-69
2021/06/08 10:50:22;;;;;;;6.33;5.63;;;29.50;90.50;;;;;;5108538;28;20203;-69
2021/06/08 10:52:48;;;;;;;5.77;4.43;;;29.20;90.30;;;;;;5107924;28;20464;-69
2021/06/08 10:55:15;;;;;;;5.50;5.00;;;29.50;91.30;;;;;;5105392;28;20445;-69
2021/06/08 10:57:45;;;;;;;8.63;5.90;;;29.60;91.20;;;;;;5111895;28;20189;-68
2021/06/08 11:00:26;;;;;;;5.20;4.80;;;29.70;91.40;;;;;;5108442;28;21016;-69
2021/06/08 11:02:59;;;;;;;6.20;4.73;;;29.60;90.90;;;;;;5108934;28;20466;-68
2021/06/08 11:05:58;;;;;;;5.63;5.13;;;29.50;91.10;;;;;;5110289;28;20575;-68
2021/06/08 11:08:59;;;;;;;7.17;5.33;;;29.50;91.00;;;;;;5106585;28;20425;-68
2021/06/08 11:11:48;;;;;;;8.70;5.00;;;29.40;91.00;;;;;;5108228;28;20983;-68
2021/06/08 11:16:59;;;;;;;26.43;8.47;;;29.20;91.30;;;;;;5108906;28;20560;-68
2021/06/08 11:19:58;;;;;;;4.63;4.23;;;29.30;91.00;;;;;;5124543;28;20431;-68
2021/06/08 11:22:51;;;;;;;5.07;4.67;;;29.00;91.00;;;;;;5109372;28;20516;-69
2021/06/08 11:25:51;;;;;;;6.03;5.43;;;28.60;90.30;;;;;;5109701;28;20761;-69
2021/06/08 11:28:17;;;;;;;7.40;5.33;;;28.70;91.20;;;;;;5109050;28;20431;-68
2021/06/08 11:31:03;;;;;;;4.50;4.20;;;28.70;91.20;;;;;;5109619;28;20469;-69
2021/06/08 11:33:43;;;;;;;4.77;3.80;;;28.50;91.20;;;;;;5107738;28;20933;-69
2021/06/08 11:36:18;;;;;;;5.20;4.87;;;28.60;90.30;;;;;;5106557;28;20464;-69
2021/06/08 11:38:45;;;;;;;4.30;4.00;;;28.80;90.60;;;;;;5108422;28;20438;-69
2021/06/08 11:41:12;;;;;;;5.20;4.70;;;29.10;88.90;;;;;;5110930;28;20480;-68
2021/06/08 11:43:37;;;;;;;4.80;4.40;;;29.10;90.40;;;;;;5109982;28;21600;-69
2021/06/08 11:46:07;;;;;;;5.00;4.60;;;28.90;90.60;;;;;;5103293;28;20448;-68
2021/06/08 11:48:38;;;;;;;5.33;4.67;;;28.70;90.60;;;;;;5110877;28;20238;-69
2021/06/08 11:51:05;;;;;;;5.17;4.37;;;28.60;90.60;;;;;;5112858;28;20834;-69
2021/06/08 11:53:32;;;;;;;4.87;4.47;;;28.70;90.50;;;;;;5112941;28;20402;-69
2021/06/08 11:56:05;;;;;;;5.30;4.23;;;28.90;90.20;;;;;;5103070;28;20466;-69
2021/06/08 11:58:33;;;;;;;6.03;4.10;;;29.00;90.40;;;;;;5111689;28;20940;-69
2021/06/08 12:00:59;;;;;;;5.60;5.10;;;28.90;90.40;;;;;;5092951;28;20477;-68
2021/06/08 12:03:36;;;;;;;6.20;5.37;;;28.80;87.00;;;;;;5096457;28;20416;-68
2021/06/08 12:06:05;;;;;;;6.07;4.67;;;28.80;86.00;;;;;;5105480;28;20447;-68
2021/06/08 12:08:32;;;;;;;8.47;5.97;;;28.70;90.30;;;;;;5111987;28;20859;-69
2021/06/08 12:10:59;;;;;;;7.47;5.23;;;28.60;90.10;;;;;;5113495;28;20425;-69
2021/06/08 12:13:33;;;;;;;5.77;5.10;;;28.70;90.10;;;;;;5104632;28;20417;-68
2021/06/08 12:15:59;;;;;;;4.83;4.33;;;28.70;88.70;;;;;;5113346;28;20452;-69
2021/06/08 12:18:35;;;;;;;5.33;4.90;;;28.70;90.30;;;;;;5128239;27;20459;-69
2021/06/08 12:21:02;;;;;;;5.47;4.70;;;28.50;85.20;;;;;;5131562;27;20561;-68
2021/06/08 12:23:30;;;;;;;6.17;5.67;;;28.50;90.40;;;;;;5131260;27;20776;-69
2021/06/08 12:26:09;;;;;;;6.00;5.50;;;28.60;90.20;;;;;;5128669;27;20459;-69
2021/06/08 12:28:35;;;;;;;5.33;4.90;;;29.00;87.30;;;;;;5128376;27;20430;-69
2021/06/08 12:31:15;;;;;;;5.70;5.20;;;29.00;89.80;;;;;;5119039;27;20450;-68
2021/06/08 12:33:42;;;;;;;6.20;5.70;;;29.00;90.20;;;;;;5114525;27;20464;-69
2021/06/08 12:36:08;;;;;;;6.50;5.90;;;29.20;90.20;;;;;;5114844;27;20462;-69
2021/06/08 12:38:34;;;;;;;5.50;4.93;;;29.40;90.10;;;;;;5131528;27;20526;-69
2021/06/08 12:41:08;;;;;;;6.90;5.67;;;29.40;89.70;;;;;;5114977;27;20563;-69
2021/06/08 12:43:41;;;;;;;5.80;5.40;;;29.30;89.80;;;;;;5108664;27;20180;-69
2021/06/08 12:46:07;;;;;;;6.53;5.70;;;29.40;89.50;;;;;;5119766;27;20448;-69
2021/06/08 12:48:32;;;;;;;5.50;5.10;;;29.10;89.60;;;;;;5118447;27;20504;-69
2021/06/08 12:50:58;;;;;;;11.70;6.00;;;29.00;89.50;;;;;;5124139;27;20191;-69
2021/06/08 12:53:26;;;;;;;6.33;5.73;;;29.00;89.10;;;;;;5126899;27;20179;-69
2021/06/08 12:55:54;;;;;;;6.57;5.73;;;29.10;89.70;;;;;;5131850;27;20291;-69